Time;durP1;ratioP1;P1;durP2;ratioP2;P2;SDS_P1;SDS_P2;PMS_P1;PMS_P2;Temp;Humidity;BMP_temperature;BMP_pressure;BME280_temperature;BME280_humidity;BME280_pressure;Samples;Min_cycle;Max_cycle;Signal;HPM_P1;HPM_P2
2022/03/10 00:00:56;;;;;;;0.20;0.20;;;;;;;19.93;31.47;101997.69;5133896;27;20073;-34
2022/03/10 00:03:22;;;;;;;0.20;0.20;;;;;;;19.93;31.50;102003.22;5134494;27;20057;-36
2022/03/10 00:05:48;;;;;;;0.20;0.20;;;;;;;19.93;31.33;102001.28;5136579;27;20421;-33
2022/03/10 00:08:13;;;;;;;0.20;0.20;;;;;;;19.92;31.41;101999.63;5133166;27;20511;-32
2022/03/10 00:10:39;;;;;;;0.20;0.20;;;;;;;19.92;31.30;102007.09;5134216;27;20390;-35
2022/03/10 00:13:05;;;;;;;0.20;0.20;;;;;;;19.91;31.40;102006.25;5137174;27;20462;-32
2022/03/10 00:15:30;;;;;;;0.20;0.20;;;;;;;19.93;31.71;102004.03;5135326;27;21352;-35
2022/03/10 00:17:56;;;;;;;0.20;0.20;;;;;;;19.91;31.67;101999.88;5133944;27;20513;-32
2022/03/10 00:20:22;;;;;;;0.20;0.20;;;;;;;19.92;31.55;102007.09;5131828;27;20450;-30
2022/03/10 00:22:51;;;;;;;0.20;0.20;;;;;;;19.92;31.70;102001.56;5133785;27;20518;-31
2022/03/10 00:25:17;;;;;;;0.20;0.20;;;;;;;19.91;31.45;102011.78;5131206;27;20115;-32
2022/03/10 00:27:45;;;;;;;0.20;0.20;;;;;;;19.92;31.69;102018.13;5133341;27;20324;-32
2022/03/10 00:30:11;;;;;;;0.20;0.20;;;;;;;19.92;31.67;102023.66;5131572;27;20493;-31
2022/03/10 00:32:41;;;;;;;0.20;0.20;;;;;;;19.91;31.69;102016.47;5136025;27;20043;-31
2022/03/10 00:35:07;;;;;;;0.20;0.20;;;;;;;19.91;31.43;102027.53;5132591;27;20074;-32
2022/03/10 00:37:32;;;;;;;0.20;0.20;;;;;;;19.90;31.63;102018.38;5135947;27;20491;-31
2022/03/10 00:39:58;;;;;;;0.20;0.20;;;;;;;19.90;31.50;102021.16;5131819;27;20043;-29
2022/03/10 00:42:24;;;;;;;0.20;0.20;;;;;;;19.91;31.61;102024.78;5129917;27;20044;-32
2022/03/10 00:44:49;;;;;;;0.20;0.20;;;;;;;19.91;31.52;102027.53;5134219;27;20089;-29
2022/03/10 00:47:15;;;;;;;0.20;0.20;;;;;;;19.90;31.63;102031.38;5132023;27;20047;-37
2022/03/10 00:49:41;;;;;;;0.20;0.20;;;;;;;19.89;31.53;102029.72;5129991;27;20043;-32
2022/03/10 00:52:07;;;;;;;0.10;0.10;;;;;;;19.90;31.41;102028.59;5128774;27;20043;-33
2022/03/10 00:54:32;;;;;;;0.20;0.20;;;;;;;19.87;31.81;102029.16;5134913;27;20035;-32
2022/03/10 00:56:58;;;;;;;0.20;0.20;;;;;;;19.88;31.65;102033.56;5136593;27;20745;-33
2022/03/10 00:59:24;;;;;;;0.20;0.20;;;;;;;19.88;31.22;102028.88;5130134;27;20521;-37
2022/03/10 01:01:49;;;;;;;0.20;0.20;;;;;;;19.88;31.52;102031.66;5133008;27;20039;-36
2022/03/10 01:04:15;;;;;;;0.20;0.20;;;;;;;19.88;31.48;102031.66;5131773;27;20472;-33
2022/03/10 01:06:41;;;;;;;0.20;0.20;;;;;;;19.89;31.56;102029.72;5129376;27;20043;-32
2022/03/10 01:09:09;;;;;;;;;;;;;;;19.88;31.39;102026.13;5131656;27;20543;-33
2022/03/10 01:11:35;;;;;;;0.20;0.20;;;;;;;19.88;31.78;102025.28;5133173;27;19919;-32
2022/03/10 01:14:00;;;;;;;0.20;0.20;;;;;;;19.88;31.81;102028.88;5130539;27;20038;-33
2022/03/10 01:16:26;;;;;;;0.20;0.20;;;;;;;19.88;31.48;102019.75;5130143;27;20054;-34
2022/03/10 01:18:52;;;;;;;0.20;0.20;;;;;;;19.88;31.78;102025.28;5129169;27;20042;-33
2022/03/10 01:21:18;;;;;;;0.20;0.20;;;;;;;19.87;31.48;102016.16;5132353;27;20416;-35
2022/03/10 01:23:43;;;;;;;0.20;0.20;;;;;;;19.87;31.59;102015.31;5132084;27;20040;-31
2022/03/10 01:26:09;;;;;;;0.20;0.20;;;;;;;19.88;31.41;102017.81;5136640;27;20041;-34
2022/03/10 01:28:36;;;;;;;0.20;0.20;;;;;;;19.87;31.87;102016.16;5129908;27;20043;-31
2022/03/10 01:31:02;;;;;;;0.20;0.20;;;;;;;19.87;31.44;102004.28;5134694;27;20095;-33
2022/03/10 01:33:30;;;;;;;;;;;;;;;19.87;31.54;102001.50;5132684;27;20047;-31
2022/03/10 01:35:56;;;;;;;0.20;0.20;;;;;;;19.85;31.84;101998.97;5134429;27;19930;-32
2022/03/10 01:38:22;;;;;;;0.20;0.20;;;;;;;19.86;31.58;102005.34;5133246;27;20050;-33
2022/03/10 01:40:47;;;;;;;0.20;0.20;;;;;;;19.86;31.83;102006.19;5132589;27;20050;-36
2022/03/10 01:43:13;;;;;;;0.20;0.20;;;;;;;19.87;31.67;102012.56;5132384;27;20042;-33
2022/03/10 01:45:39;;;;;;;0.20;0.20;;;;;;;19.86;31.70;102008.09;5133029;27;20042;-32
2022/03/10 01:48:04;;;;;;;0.20;0.20;;;;;;;19.85;31.48;102010.03;5132001;27;20741;-32
2022/03/10 01:50:30;;;;;;;0.20;0.20;;;;;;;19.85;31.79;102012.81;5129583;27;20048;-37
2022/03/10 01:52:56;;;;;;;0.20;0.20;;;;;;;19.86;31.82;102008.09;5116994;27;20039;-33
2022/03/10 01:55:22;;;;;;;0.20;0.20;;;;;;;19.87;31.48;102004.28;5127642;27;20043;-37
2022/03/10 01:57:47;;;;;;;0.20;0.20;;;;;;;19.86;31.64;102003.44;5138639;27;20042;-31
2022/03/10 02:00:15;;;;;;;0.20;0.20;;;;;;;19.85;31.48;102004.50;5129434;27;20043;-33
2022/03/10 02:02:40;;;;;;;0.20;0.20;;;;;;;19.85;31.93;102001.75;5135218;27;20077;-37
2022/03/10 02:05:06;;;;;;;0.20;0.20;;;;;;;19.85;31.70;102004.50;5130721;27;20470;-39
2022/03/10 02:10:18;;;;;;;0.20;0.20;;;;;;;19.86;31.73;101994.28;5121064;27;20304;-34
2022/03/10 02:12:49;;;;;;;0.20;0.20;;;;;;;19.86;31.80;101997.03;5137496;27;20131;-36
2022/03/10 02:18:06;;;;;;;0.20;0.20;;;;;;;19.86;31.58;101988.75;5116023;27;20050;-33
2022/03/10 02:20:32;;;;;;;0.20;0.20;;;;;;;19.84;31.56;101991.78;5131761;27;20039;-35
2022/03/10 02:22:58;;;;;;;0.20;0.20;;;;;;;19.85;31.51;101996.22;5134257;27;20073;-33
2022/03/10 02:25:24;;;;;;;0.20;0.20;;;;;;;19.85;31.59;101998.16;5137902;27;20486;-33
2022/03/10 02:27:51;;;;;;;0.20;0.20;;;;;;;19.85;31.65;101996.22;5133427;27;20039;-35
2022/03/10 02:30:19;;;;;;;0.20;0.20;;;;;;;19.86;31.54;101997.03;5136165;27;20597;-34
2022/03/10 02:32:45;;;;;;;0.20;0.20;;;;;;;19.85;31.59;101992.63;5137310;27;20105;-33
2022/03/10 02:35:11;;;;;;;0.20;0.20;;;;;;;19.84;31.79;101994.56;5135831;27;20541;-38
2022/03/10 02:37:37;;;;;;;0.20;0.20;;;;;;;19.84;31.68;101991.78;5134958;27;20083;-37
2022/03/10 02:40:04;;;;;;;0.20;0.20;;;;;;;19.84;31.72;101994.56;5135561;27;20405;-33
2022/03/10 02:42:31;;;;;;;0.20;0.20;;;;;;;19.85;31.59;101981.56;5130980;27;20054;-35
2022/03/10 02:44:57;;;;;;;0.20;0.20;;;;;;;19.84;31.76;101975.19;5134185;27;20043;-35
2022/03/10 02:47:23;;;;;;;0.20;0.20;;;;;;;19.84;31.64;101968.84;5142671;27;20051;-37
2022/03/10 02:49:48;;;;;;;0.20;0.20;;;;;;;19.85;32.01;101978.81;5132909;27;20039;-36
2022/03/10 02:52:14;;;;;;;0.20;0.20;;;;;;;19.84;31.91;101977.13;5132088;27;20053;-36
2022/03/10 02:54:43;;;;;;;0.20;0.20;;;;;;;19.83;31.87;101976.31;5131283;27;20458;-36
2022/03/10 02:57:08;;;;;;;0.20;0.20;;;;;;;19.83;31.46;101979.06;5133948;27;20042;-33
2022/03/10 02:59:34;;;;;;;0.20;0.20;;;;;;;19.85;31.71;101978.81;5135351;27;20432;-35
2022/03/10 03:02:00;;;;;;;0.20;0.20;;;;;;;19.85;31.62;101978.81;5137499;27;20196;-35
2022/03/10 03:04:26;;;;;;;0.20;0.20;;;;;;;19.83;31.77;101978.25;5133789;27;20115;-33
2022/03/10 03:06:52;;;;;;;0.20;0.20;;;;;;;19.83;31.91;101979.06;5115418;27;20035;-34
2022/03/10 03:09:17;;;;;;;0.20;0.20;;;;;;;19.83;31.64;101984.59;5138470;27;20082;-34
2022/03/10 03:11:43;;;;;;;0.20;0.20;;;;;;;19.82;31.52;101980.16;5134735;27;20035;-32
2022/03/10 03:14:09;;;;;;;0.20;0.20;;;;;;;19.83;31.71;101981.00;5135218;27;20047;-35
2022/03/10 03:16:34;;;;;;;0.20;0.20;;;;;;;19.83;31.89;101979.06;5134453;27;20051;-36
2022/03/10 03:19:00;;;;;;;0.20;0.20;;;;;;;19.84;31.91;101979.91;5135845;27;20058;-34
2022/03/10 03:21:26;;;;;;;0.20;0.20;;;;;;;19.83;31.99;101975.47;5134411;27;20055;-35
2022/03/10 03:23:52;;;;;;;0.20;0.20;;;;;;;19.82;31.59;101976.53;5137777;27;20382;-36
2022/03/10 03:26:18;;;;;;;0.20;0.20;;;;;;;19.83;31.99;101986.53;5137858;27;20277;-33
2022/03/10 03:28:43;;;;;;;0.20;0.20;;;;;;;19.82;31.63;101994.00;5135307;27;20039;-37
2022/03/10 03:31:10;;;;;;;0.20;0.20;;;;;;;19.83;31.59;101986.53;5132073;27;20474;-34
2022/03/10 03:33:37;;;;;;;0.20;0.20;;;;;;;19.82;31.96;101980.16;5134785;27;20043;-36
2022/03/10 03:36:03;;;;;;;0.20;0.20;;;;;;;19.82;31.75;101985.69;5133297;27;20049;-31
2022/03/10 03:38:28;;;;;;;0.20;0.20;;;;;;;19.82;31.83;101985.69;5132934;27;20051;-36
2022/03/10 03:40:54;;;;;;;0.20;0.20;;;;;;;19.82;31.80;101991.22;5134783;27;20042;-31
2022/03/10 03:43:20;;;;;;;0.20;0.20;;;;;;;19.82;31.92;101993.13;5136971;27;20423;-33
2022/03/10 03:45:45;;;;;;;0.20;0.20;;;;;;;19.81;31.99;101997.81;5134482;27;20050;-33
2022/03/10 03:48:11;;;;;;;0.20;0.20;;;;;;;19.81;31.68;102000.59;5134776;27;20046;-35
2022/03/10 03:50:37;;;;;;;0.20;0.20;;;;;;;19.82;31.80;102002.28;5134379;27;20070;-34
2022/03/10 03:53:02;;;;;;;0.20;0.20;;;;;;;19.81;31.69;102003.34;5132555;27;20046;-31
2022/03/10 03:55:29;;;;;;;0.20;0.20;;;;;;;19.82;32.01;102010.56;5133406;27;20043;-35
2022/03/10 03:57:54;;;;;;;0.20;0.20;;;;;;;19.81;32.02;102006.13;5134343;27;20069;-35
2022/03/10 04:00:20;;;;;;;0.20;0.20;;;;;;;19.82;31.82;102006.94;5132961;27;20047;-34
2022/03/10 04:02:46;;;;;;;0.20;0.20;;;;;;;19.80;31.82;102005.28;5132864;27;20046;-33
2022/03/10 04:05:14;;;;;;;0.20;0.20;;;;;;;19.80;31.67;102007.22;5133856;27;20043;-33
2022/03/10 04:07:39;;;;;;;0.20;0.20;;;;;;;19.80;32.01;102005.28;5113982;27;20536;-37
2022/03/10 04:10:07;;;;;;;0.20;0.20;;;;;;;19.82;31.77;102005.03;5133374;27;20471;-33
2022/03/10 04:12:33;;;;;;;0.20;0.20;;;;;;;19.81;31.72;102000.59;5136081;27;20038;-33
2022/03/10 04:14:59;;;;;;;0.20;0.20;;;;;;;19.82;31.67;102004.19;5131592;27;20492;-34
2022/03/10 04:17:25;;;;;;;0.20;0.20;;;;;;;19.80;31.83;101999.75;5131684;27;20049;-34
2022/03/10 04:19:51;;;;;;;0.20;0.20;;;;;;;19.82;31.80;102002.28;5134328;27;20047;-34
2022/03/10 04:22:17;;;;;;;0.20;0.20;;;;;;;19.82;31.73;102006.94;5130057;27;20058;-36
2022/03/10 04:24:43;;;;;;;0.20;0.20;;;;;;;19.80;31.96;102013.59;5131255;27;20474;-35
2022/03/10 04:27:08;;;;;;;0.20;0.20;;;;;;;19.80;32.00;102010.81;5130813;27;20177;-32
2022/03/10 04:29:34;;;;;;;0.20;0.20;;;;;;;19.81;32.08;102008.88;5136737;27;20078;-36
2022/03/10 04:32:00;;;;;;;0.20;0.20;;;;;;;19.80;31.82;102001.69;5134590;27;20076;-35
2022/03/10 04:34:25;;;;;;;0.20;0.20;;;;;;;19.82;31.96;102009.72;5132442;27;20393;-33
2022/03/10 04:36:51;;;;;;;0.20;0.20;;;;;;;19.82;32.01;102006.94;5132461;27;20315;-32
2022/03/10 04:39:17;;;;;;;0.20;0.20;;;;;;;19.79;32.04;102006.38;5133140;27;20406;-33
2022/03/10 04:41:43;;;;;;;0.20;0.20;;;;;;;19.82;31.63;102013.34;5130945;27;20092;-31
2022/03/10 04:44:10;;;;;;;0.20;0.20;;;;;;;19.79;32.13;102011.09;5130467;27;20047;-34
2022/03/10 04:46:36;;;;;;;0.20;0.20;;;;;;;19.80;31.67;102008.06;5136668;27;20365;-36
2022/03/10 04:49:03;;;;;;;0.20;0.20;;;;;;;19.79;31.88;102014.69;5136091;27;20425;-35
2022/03/10 04:51:28;;;;;;;0.20;0.20;;;;;;;19.80;31.90;102018.28;5131014;27;20070;-32
2022/03/10 04:53:54;;;;;;;0.20;0.20;;;;;;;19.79;31.86;102014.69;5134079;27;20053;-32
2022/03/10 04:56:20;;;;;;;0.20;0.20;;;;;;;19.79;31.92;102014.69;5133959;27;20047;-36
2022/03/10 04:58:46;;;;;;;0.20;0.20;;;;;;;19.79;31.95;102009.16;5129379;27;20401;-34
2022/03/10 05:01:12;;;;;;;0.20;0.20;;;;;;;19.79;31.70;102014.69;5137390;27;20091;-32
2022/03/10 05:03:38;;;;;;;0.20;0.20;;;;;;;19.79;31.87;102013.84;5137981;27;20050;-35
2022/03/10 05:06:04;;;;;;;0.20;0.20;;;;;;;19.79;32.03;102020.22;5134828;27;20092;-33
2022/03/10 05:08:30;;;;;;;0.20;0.20;;;;;;;19.78;31.86;102015.78;5135799;27;20474;-33
2022/03/10 05:10:57;;;;;;;0.20;0.20;;;;;;;19.79;31.85;102016.63;5135229;27;20104;-32
2022/03/10 05:13:23;;;;;;;0.20;0.20;;;;;;;19.78;32.07;102015.78;5138496;27;20093;-32
2022/03/10 05:15:49;;;;;;;0.20;0.20;;;;;;;19.78;31.86;102015.78;5131934;27;20039;-35
2022/03/10 05:18:15;;;;;;;0.20;0.20;;;;;;;19.77;32.11;102019.66;5133296;27;20039;-33
2022/03/10 05:20:41;;;;;;;0.20;0.20;;;;;;;19.77;31.77;102022.41;5134044;27;20436;-34
2022/03/10 05:23:07;;;;;;;0.20;0.20;;;;;;;19.79;31.81;102020.22;5135640;27;20528;-36
2022/03/10 05:25:36;;;;;;;;;;;;;;;19.79;31.71;102016.63;5130783;27;20043;-35
2022/03/10 05:28:02;;;;;;;0.20;0.20;;;;;;;19.77;32.11;102011.34;5136866;27;19984;-34
2022/03/10 05:30:28;;;;;;;0.20;0.20;;;;;;;19.78;32.02;102017.72;5133578;27;20045;-33
2022/03/10 05:32:54;;;;;;;0.20;0.20;;;;;;;19.79;31.70;102024.91;5132178;27;20054;-35
2022/03/10 05:35:20;;;;;;;0.20;0.20;;;;;;;19.79;32.13;102022.97;5128657;27;20044;-35
2022/03/10 05:37:48;;;;;;;0.20;0.20;;;;;;;19.77;32.02;102029.84;5134964;27;20137;-32
2022/03/10 05:40:17;;;;;;;0.20;0.20;;;;;;;19.78;31.90;102026.84;5136013;27;20258;-33
2022/03/10 05:42:44;;;;;;;0.20;0.20;;;;;;;19.79;31.96;102027.66;5134135;27;20039;-34
2022/03/10 05:45:11;;;;;;;0.13;0.13;;;;;;;19.79;31.78;102033.19;5141325;27;20066;-32
2022/03/10 05:47:38;;;;;;;0.20;0.20;;;;;;;19.77;31.97;102033.47;5120082;27;20198;-34
2022/03/10 05:50:05;;;;;;;0.20;0.20;;;;;;;19.78;31.77;102028.78;5133592;27;20073;-36
2022/03/10 05:52:31;;;;;;;0.20;0.20;;;;;;;19.79;32.07;102036.78;5133007;27;20071;-33
2022/03/10 05:54:57;;;;;;;0.20;0.20;;;;;;;19.79;31.85;102042.31;5132043;27;20047;-33
2022/03/10 05:57:23;;;;;;;0.20;0.20;;;;;;;19.78;31.68;102042.59;5136332;27;20401;-32
2022/03/10 05:59:49;;;;;;;0.20;0.20;;;;;;;19.79;31.63;102041.50;5131891;27;20047;-36
2022/03/10 06:02:16;;;;;;;0.20;0.20;;;;;;;19.78;31.75;102040.66;5136003;27;20046;-36
2022/03/10 06:04:43;;;;;;;0.20;0.20;;;;;;;19.77;31.87;102036.22;5114766;27;20043;-32
2022/03/10 06:07:08;;;;;;;0.20;0.20;;;;;;;19.78;32.10;102040.66;5139296;27;20484;-36
2022/03/10 06:09:34;;;;;;;0.20;0.20;;;;;;;19.79;31.70;102047.03;5137246;27;20469;-35
2022/03/10 06:12:01;;;;;;;0.20;0.20;;;;;;;19.78;31.94;102053.66;5138287;27;20465;-36
2022/03/10 06:14:26;;;;;;;0.20;0.20;;;;;;;19.78;31.94;102056.41;5135406;27;20091;-33
2022/03/10 06:16:52;;;;;;;0.20;0.20;;;;;;;19.76;31.75;102059.41;5119625;27;20034;-33
2022/03/10 06:19:19;;;;;;;0.20;0.20;;;;;;;19.76;32.03;102059.41;5135979;27;20075;-34
2022/03/10 06:21:46;;;;;;;0.20;0.20;;;;;;;19.77;32.05;102055.59;5136396;27;20397;-36
2022/03/10 06:24:12;;;;;;;0.20;0.20;;;;;;;19.77;32.04;102063.00;5133367;27;20296;-36
2022/03/10 06:26:38;;;;;;;0.20;0.20;;;;;;;19.76;32.03;102062.19;5136940;27;20082;-36
2022/03/10 06:29:04;;;;;;;0.20;0.20;;;;;;;19.78;32.03;102067.47;5133554;27;20035;-37
2022/03/10 06:31:33;;;;;;;0.20;0.20;;;;;;;19.75;31.98;102066.03;5133701;27;20121;-32
2022/03/10 06:33:58;;;;;;;0.20;0.20;;;;;;;19.76;31.83;102066.88;5136890;27;20045;-35
2022/03/10 06:36:26;;;;;;;0.20;0.20;;;;;;;19.76;31.75;102072.41;5132885;27;20443;-33
2022/03/10 06:38:52;;;;;;;0.10;0.10;;;;;;;19.76;31.67;102066.88;5132954;27;20081;-35
2022/03/10 06:41:18;;;;;;;0.20;0.20;;;;;;;19.75;31.72;102059.69;5134133;27;20067;-33
2022/03/10 06:43:44;;;;;;;0.20;0.20;;;;;;;19.75;31.92;102063.28;5136627;27;20212;-35
2022/03/10 06:46:12;;;;;;;0.20;0.20;;;;;;;19.75;31.52;102062.44;5129770;27;20046;-34
2022/03/10 06:48:38;;;;;;;0.20;0.20;;;;;;;19.69;27.58;102064.31;5129801;27;20039;-42
2022/03/10 06:51:04;;;;;;;0.20;0.20;;;;;;;19.60;23.65;102063.03;5125975;27;20042;-40
2022/03/10 06:53:30;;;;;;;0.20;0.20;;;;;;;19.54;25.50;102064.91;5133873;27;20042;-31
2022/03/10 06:55:56;;;;;;;0.20;0.20;;;;;;;19.68;27.99;102067.31;5125273;27;20099;-32
2022/03/10 06:58:22;;;;;;;0.20;0.20;;;;;;;19.74;28.79;102071.84;5130224;27;20043;-34
2022/03/10 07:00:47;;;;;;;0.20;0.20;;;;;;;19.76;28.91;102075.16;5117691;27;20418;-35
2022/03/10 07:03:13;;;;;;;0.20;0.20;;;;;;;19.77;29.24;102076.81;5125063;27;20043;-33
2022/03/10 07:05:40;;;;;;;0.20;0.20;;;;;;;19.77;29.07;102076.81;5130107;27;20546;-33
2022/03/10 07:08:05;;;;;;;0.20;0.20;;;;;;;19.79;29.29;102082.94;5130549;27;20085;-33
2022/03/10 07:10:31;;;;;;;0.20;0.20;;;;;;;19.80;29.62;102079.91;5129905;27;20074;-32
2022/03/10 07:12:57;;;;;;;0.20;0.20;;;;;;;19.82;29.88;102081.59;5124918;27;20039;-31
2022/03/10 07:15:23;;;;;;;0.20;0.20;;;;;;;19.83;29.87;102080.53;5131801;27;20436;-33
2022/03/10 07:17:51;;;;;;;0.20;0.20;;;;;;;19.84;29.90;102076.66;5132208;27;20046;-33
2022/03/10 07:20:18;;;;;;;0.20;0.20;;;;;;;19.83;29.79;102081.34;5128445;27;20039;-33
2022/03/10 07:22:45;;;;;;;0.20;0.20;;;;;;;19.84;30.03;102082.19;5128872;27;20345;-32
2022/03/10 07:25:11;;;;;;;0.20;0.20;;;;;;;19.84;30.14;102079.41;5107049;27;20113;-32
2022/03/10 07:27:37;;;;;;;0.20;0.20;;;;;;;19.85;30.10;102078.31;5136108;27;20054;-31
2022/03/10 07:30:04;;;;;;;0.20;0.20;;;;;;;19.85;30.09;102081.91;5113334;27;20094;-35
2022/03/10 07:32:29;;;;;;;0.20;0.20;;;;;;;19.85;30.19;102081.91;5129511;27;20250;-33
2022/03/10 07:34:56;;;;;;;0.20;0.20;;;;;;;19.87;29.80;102088.03;5130698;27;20229;-32
2022/03/10 07:37:21;;;;;;;0.20;0.20;;;;;;;19.88;29.89;102089.69;5126774;27;20471;-31
2022/03/10 07:39:47;;;;;;;0.20;0.20;;;;;;;19.90;30.02;102090.25;5127642;27;20051;-35
2022/03/10 07:42:13;;;;;;;0.20;0.20;;;;;;;19.90;29.95;102083.91;5125075;27;20051;-32
2022/03/10 07:44:39;;;;;;;0.20;0.20;;;;;;;19.91;30.00;102093.88;5131141;27;20045;-33
2022/03/10 07:47:05;;;;;;;0.20;0.20;;;;;;;19.92;30.02;102092.78;5128184;27;20039;-32
2022/03/10 07:49:32;;;;;;;0.20;0.20;;;;;;;19.92;29.92;102090.03;5129073;27;20522;-36
2022/03/10 07:52:03;;;;;;;0.20;0.20;;;;;;;19.93;30.14;102087.00;5126094;27;20042;-34
2022/03/10 07:54:28;;;;;;;0.10;0.10;;;;;;;19.95;30.27;102095.88;5127840;27;20124;-32
2022/03/10 07:56:54;;;;;;;0.20;0.20;;;;;;;19.95;30.26;102075.69;5128130;27;20058;-32
2022/03/10 07:59:20;;;;;;;0.20;0.20;;;;;;;19.96;30.22;102085.66;5128620;27;20050;-32
2022/03/10 08:01:46;;;;;;;0.20;0.20;;;;;;;19.95;30.41;102078.47;5124612;27;20304;-38
2022/03/10 08:04:12;;;;;;;0.20;0.20;;;;;;;19.95;30.42;102087.59;5123694;27;20047;-33
2022/03/10 08:06:37;;;;;;;0.20;0.20;;;;;;;19.95;30.43;102087.59;5125362;27;20425;-32
2022/03/10 08:09:06;;;;;;;0.20;0.20;;;;;;;19.95;30.46;102087.59;5109860;27;20431;-34
2022/03/10 08:11:33;;;;;;;0.20;0.20;;;;;;;19.96;30.30;102086.47;5119342;27;20091;-34
2022/03/10 08:13:58;;;;;;;0.20;0.20;;;;;;;19.96;30.49;102074.59;5118986;27;20511;-33
2022/03/10 08:16:24;;;;;;;0.20;0.20;;;;;;;19.96;30.48;102078.19;5123409;27;20043;-35
2022/03/10 08:18:50;;;;;;;0.17;0.17;;;;;;;19.96;30.66;102075.44;5122395;27;20407;-33
2022/03/10 08:21:16;;;;;;;0.20;0.20;;;;;;;19.95;30.45;102076.53;5125455;27;20065;-32
2022/03/10 08:23:42;;;;;;;0.20;0.20;;;;;;;19.97;30.26;102079.03;5127251;27;20103;-32
2022/03/10 08:26:10;;;;;;;0.20;0.20;;;;;;;19.96;30.65;102069.91;5131502;27;20042;-32
2022/03/10 08:28:36;;;;;;;0.10;0.10;;;;;;;19.97;30.55;102073.50;5128676;27;20445;-32
2022/03/10 08:31:04;;;;;;;0.20;0.20;;;;;;;19.97;30.54;102070.72;5124782;27;20061;-36
2022/03/10 08:33:31;;;;;;;0.20;0.20;;;;;;;19.96;30.61;102069.91;5130401;27;20047;-33
2022/03/10 08:35:57;;;;;;;0.20;0.20;;;;;;;19.96;30.34;102069.06;5115751;27;20046;-32
2022/03/10 08:38:22;;;;;;;0.20;0.20;;;;;;;19.96;30.34;102069.06;5130506;27;20050;-31
2022/03/10 08:40:48;;;;;;;0.40;0.40;;;;;;;19.96;30.36;102069.91;5129283;27;20075;-33
2022/03/10 08:43:15;;;;;;;0.20;0.20;;;;;;;19.96;30.26;102067.13;5128929;27;20378;-33
2022/03/10 08:45:41;;;;;;;0.20;0.20;;;;;;;19.96;30.42;102064.38;5134960;27;20486;-33
2022/03/10 08:48:07;;;;;;;0.20;0.20;;;;;;;19.96;30.57;102050.53;5125580;27;20190;-35
2022/03/10 08:50:33;;;;;;;0.20;0.20;;;;;;;19.95;30.50;102054.41;5124909;27;20591;-33
2022/03/10 08:52:59;;;;;;;0.20;0.20;;;;;;;19.96;30.60;102053.31;5131398;27;20511;-32
2022/03/10 08:55:24;;;;;;;0.20;0.20;;;;;;;19.95;30.14;102054.41;5132081;27;20126;-32
2022/03/10 08:57:50;;;;;;;0.20;0.20;;;;;;;19.95;30.31;102048.03;5110687;27;20039;-33
2022/03/10 09:00:18;;;;;;;0.20;0.20;;;;;;;19.96;30.54;102046.94;5125394;27;20473;-33
2022/03/10 09:02:44;;;;;;;0.10;0.10;;;;;;;19.96;30.49;102041.41;5110136;27;20397;-31
2022/03/10 09:05:10;;;;;;;0.20;0.20;;;;;;;19.95;30.50;102035.06;5123251;27;20648;-32
2022/03/10 09:07:36;;;;;;;0.20;0.20;;;;;;;19.95;30.06;102048.03;5109545;27;20031;-32
2022/03/10 09:10:09;;;;;;;0.20;0.20;;;;;;;19.94;30.19;102035.28;5126498;27;20177;-34
2022/03/10 09:12:34;;;;;;;0.20;0.20;;;;;;;19.95;30.03;102039.75;5121103;27;20074;-33
2022/03/10 09:15:00;;;;;;;0.20;0.20;;;;;;;19.95;30.06;102046.13;5123534;27;20123;-34
2022/03/10 09:17:25;;;;;;;0.20;0.20;;;;;;;19.94;30.00;102040.81;5125018;27;20046;-32
2022/03/10 09:19:53;;;;;;;0.20;0.20;;;;;;;19.94;29.87;102046.34;5131192;27;20174;-31
2022/03/10 09:22:20;;;;;;;0.10;0.10;;;;;;;19.94;29.86;102041.66;5114648;27;20081;-35
2022/03/10 09:24:46;;;;;;;0.20;0.20;;;;;;;19.94;30.14;102041.66;5113217;27;20043;-34
2022/03/10 09:27:11;;;;;;;0.20;0.20;;;;;;;19.95;29.94;102040.59;5112032;27;20377;-35
2022/03/10 09:29:37;;;;;;;0.20;0.20;;;;;;;19.95;30.26;102039.75;5130190;27;20046;-32
2022/03/10 09:32:03;;;;;;;0.20;0.20;;;;;;;19.94;29.89;102038.06;5130351;27;20047;-32
2022/03/10 09:34:32;;;;;;;0.20;0.20;;;;;;;19.94;29.95;102038.88;5131370;27;20054;-33
2022/03/10 09:36:58;;;;;;;0.20;0.20;;;;;;;19.95;30.11;102037.00;5130851;27;20209;-35
2022/03/10 09:39:23;;;;;;;0.20;0.20;;;;;;;19.95;30.14;102031.47;5130810;27;20054;-32
2022/03/10 09:41:49;;;;;;;0.20;0.20;;;;;;;19.93;30.02;102037.22;5128024;27;20246;-34
2022/03/10 09:44:18;;;;;;;0.20;0.20;;;;;;;19.93;29.73;102040.00;5127895;27;20048;-32
2022/03/10 09:46:47;;;;;;;0.20;0.20;;;;;;;19.93;30.01;102028.09;5125850;27;20103;-33
2022/03/10 09:49:13;;;;;;;0.20;0.20;;;;;;;19.92;29.91;102026.44;5132127;27;20483;-35
2022/03/10 09:51:39;;;;;;;0.20;0.20;;;;;;;19.94;29.78;102013.19;5129453;27;20081;-32
2022/03/10 09:54:04;;;;;;;0.28;0.28;;;;;;;19.93;30.22;102014.28;5128389;27;20499;-35
2022/03/10 09:56:31;;;;;;;0.20;0.20;;;;;;;19.93;30.02;102019.81;5132343;27;20043;-32
2022/03/10 09:58:56;;;;;;;0.20;0.20;;;;;;;19.92;29.93;102018.97;5129343;27;20100;-35
2022/03/10 10:01:22;;;;;;;0.20;0.20;;;;;;;19.91;29.92;102014.53;5127302;27;20043;-32
2022/03/10 10:03:48;;;;;;;0.20;0.20;;;;;;;19.91;29.80;102014.53;5128862;27;20059;-32
2022/03/10 10:06:13;;;;;;;0.20;0.20;;;;;;;19.90;29.62;102012.84;5129430;27;20054;-33
2022/03/10 10:08:41;;;;;;;0.20;0.20;;;;;;;19.92;30.02;102007.91;5129571;27;20442;-33
2022/03/10 10:11:07;;;;;;;0.20;0.20;;;;;;;19.91;29.79;102010.94;5130169;27;20091;-36
2022/03/10 10:13:38;;;;;;;0.20;0.20;;;;;;;19.91;29.75;102009.03;5134343;27;20127;-32
2022/03/10 10:16:07;;;;;;;0.20;0.20;;;;;;;19.91;29.58;102019.25;5131245;27;20500;-32
2022/03/10 10:18:35;;;;;;;0.20;0.20;;;;;;;19.92;29.80;102010.69;5130651;27;20126;-31
2022/03/10 10:21:12;;;;;;;0.20;0.20;;;;;;;19.90;29.73;101999.03;5133721;27;20064;-31
2022/03/10 10:23:39;;;;;;;0.20;0.20;;;;;;;19.90;29.81;101996.25;5127060;27;20362;-33
2022/03/10 10:26:07;;;;;;;0.20;0.20;;;;;;;19.91;29.58;101997.13;5131968;27;20253;-32
2022/03/10 10:28:36;;;;;;;0.20;0.20;;;;;;;19.90;29.70;102001.78;5134468;27;20047;-31
2022/03/10 10:31:07;;;;;;;0.20;0.20;;;;;;;19.90;29.75;101995.44;5129789;27;20373;-33
2022/03/10 10:33:35;;;;;;;0.20;0.20;;;;;;;19.91;30.02;101999.88;5132833;27;20043;-32
2022/03/10 10:36:24;;;;;;;0.20;0.20;;;;;;;19.90;29.90;101999.03;5129216;27;20074;-35
2022/03/10 10:38:52;;;;;;;0.20;0.20;;;;;;;19.91;29.71;101999.88;5109691;27;20521;-33
2022/03/10 10:41:27;;;;;;;0.20;0.20;;;;;;;19.90;30.03;102003.72;5124070;27;20079;-32
2022/03/10 10:43:59;;;;;;;0.20;0.20;;;;;;;19.89;29.82;101996.53;5127099;27;20050;-34
2022/03/10 10:46:32;;;;;;;0.35;0.35;;;;;;;19.88;29.80;101995.72;5126607;27;20085;-33
2022/03/10 10:49:00;;;;;;;0.20;0.20;;;;;;;19.88;29.84;101992.94;5132887;27;20077;-35
2022/03/10 10:51:36;;;;;;;0.20;0.20;;;;;;;19.91;29.71;101991.59;5130014;27;20748;-33
2022/03/10 10:54:05;;;;;;;0.28;0.28;;;;;;;19.89;29.41;101988.25;5135513;27;20472;-34
2022/03/10 10:56:30;;;;;;;;;;;;;;;19.88;29.65;101987.41;5113707;27;20082;-33
2022/03/10 10:58:57;;;;;;;0.20;0.20;;;;;;;19.88;29.59;101986.56;5130054;27;19926;-35
2022/03/10 11:01:37;;;;;;;0.20;0.20;;;;;;;19.87;29.50;101982.97;5130530;27;20073;-36
2022/03/10 11:04:05;;;;;;;0.20;0.20;;;;;;;19.86;29.58;101978.56;5132147;27;20049;-34
2022/03/10 11:06:32;;;;;;;0.20;0.20;;;;;;;19.87;29.68;101966.41;5132339;27;20058;-35
2022/03/10 11:08:58;;;;;;;0.20;0.20;;;;;;;19.86;29.43;101963.88;5131092;27;20046;-34
2022/03/10 11:11:24;;;;;;;0.20;0.20;;;;;;;19.88;29.60;101958.94;5128397;27;20633;-33
2022/03/10 11:13:50;;;;;;;0.20;0.20;;;;;;;19.88;29.38;101958.94;5108009;27;20500;-35
2022/03/10 11:16:16;;;;;;;0.20;0.20;;;;;;;19.87;29.50;101951.75;5136871;27;20081;-32
2022/03/10 11:18:48;;;;;;;0.20;0.20;;;;;;;19.87;29.44;101946.22;5116040;27;20039;-35
2022/03/10 11:24:48;;;;;;;0.20;0.20;;;;;;;19.86;29.39;101942.63;5160386;27;20663;-34
2022/03/10 11:27:17;;;;;;;0.20;0.20;;;;;;;19.86;29.52;101941.75;5139051;27;20077;-34
2022/03/10 11:29:46;;;;;;;0.20;0.20;;;;;;;19.86;29.76;101936.22;5134337;27;20345;-37
2022/03/10 11:32:11;;;;;;;;;;;;;;;19.86;29.49;101930.69;5136496;27;20125;-34